sensor_id;sensor_type;location;lat;lon;timestamp;P1;durP1;ratioP1;P2;durP2;ratioP2
31061;SDS011;17724;53.546;9.974;2022-07-24T00:00:22;8.80;;;2.50;;
31061;SDS011;17724;53.546;9.974;2022-07-24T00:04:22;9.93;;;3.90;;
31061;SDS011;17724;53.546;9.974;2022-07-24T00:08:23;8.00;;;3.20;;
31061;SDS011;17724;53.546;9.974;2022-07-24T00:12:23;8.20;;;3.57;;
31061;SDS011;17724;53.546;9.974;2022-07-24T00:16:24;6.97;;;2.90;;
31061;SDS011;17724;53.546;9.974;2022-07-24T00:20:24;10.60;;;3.30;;
31061;SDS011;17724;53.546;9.974;2022-07-24T00:24:24;8.17;;;3.27;;
31061;SDS011;17724;53.546;9.974;2022-07-24T00:28:25;9.57;;;3.60;;
31061;SDS011;17724;53.546;9.974;2022-07-24T00:32:25;8.77;;;4.57;;
31061;SDS011;17724;53.546;9.974;2022-07-24T00:36:25;10.73;;;4.17;;
31061;SDS011;17724;53.546;9.974;2022-07-24T00:40:26;10.27;;;4.40;;
31061;SDS011;17724;53.546;9.974;2022-07-24T00:44:27;9.80;;;3.93;;
31061;SDS011;17724;53.546;9.974;2022-07-24T00:48:27;11.43;;;4.40;;
31061;SDS011;17724;53.546;9.974;2022-07-24T00:52:28;11.00;;;4.70;;
31061;SDS011;17724;53.546;9.974;2022-07-24T00:56:29;11.33;;;4.10;;
31061;SDS011;17724;53.546;9.974;2022-07-24T01:00:29;10.57;;;4.60;;
31061;SDS011;17724;53.546;9.974;2022-07-24T01:04:30;12.17;;;4.60;;
31061;SDS011;17724;53.546;9.974;2022-07-24T01:08:30;8.37;;;4.10;;
31061;SDS011;17724;53.546;9.974;2022-07-24T01:12:31;7.97;;;4.07;;
31061;SDS011;17724;53.546;9.974;2022-07-24T01:16:33;9.80;;;3.90;;
31061;SDS011;17724;53.546;9.974;2022-07-24T01:20:38;10.83;;;3.93;;
31061;SDS011;17724;53.546;9.974;2022-07-24T01:24:39;9.77;;;4.00;;
31061;SDS011;17724;53.546;9.974;2022-07-24T01:28:39;10.10;;;4.50;;
31061;SDS011;17724;53.546;9.974;2022-07-24T01:32:41;10.10;;;4.07;;
31061;SDS011;17724;53.546;9.974;2022-07-24T01:36:41;8.90;;;3.90;;
31061;SDS011;17724;53.546;9.974;2022-07-24T01:40:42;7.93;;;3.87;;
31061;SDS011;17724;53.546;9.974;2022-07-24T01:44:43;9.33;;;3.70;;
31061;SDS011;17724;53.546;9.974;2022-07-24T01:48:43;7.57;;;3.37;;
31061;SDS011;17724;53.546;9.974;2022-07-24T01:52:44;8.70;;;3.90;;
31061;SDS011;17724;53.546;9.974;2022-07-24T01:56:45;9.77;;;3.80;;
31061;SDS011;17724;53.546;9.974;2022-07-24T02:00:46;9.23;;;3.40;;
31061;SDS011;17724;53.546;9.974;2022-07-24T02:04:46;8.33;;;3.33;;
31061;SDS011;17724;53.546;9.974;2022-07-24T02:08:46;8.63;;;3.90;;
31061;SDS011;17724;53.546;9.974;2022-07-24T02:12:47;11.43;;;4.03;;
31061;SDS011;17724;53.546;9.974;2022-07-24T02:16:47;8.47;;;4.20;;
31061;SDS011;17724;53.546;9.974;2022-07-24T02:20:48;10.80;;;5.30;;
31061;SDS011;17724;53.546;9.974;2022-07-24T02:24:48;12.13;;;4.20;;
31061;SDS011;17724;53.546;9.974;2022-07-24T02:28:49;9.40;;;4.07;;
31061;SDS011;17724;53.546;9.974;2022-07-24T02:32:49;9.23;;;3.43;;
31061;SDS011;17724;53.546;9.974;2022-07-24T02:36:50;8.10;;;2.90;;
31061;SDS011;17724;53.546;9.974;2022-07-24T02:40:51;8.33;;;3.30;;
31061;SDS011;17724;53.546;9.974;2022-07-24T02:44:51;7.93;;;2.67;;
31061;SDS011;17724;53.546;9.974;2022-07-24T02:48:51;10.57;;;3.10;;
31061;SDS011;17724;53.546;9.974;2022-07-24T02:52:52;7.53;;;3.47;;
31061;SDS011;17724;53.546;9.974;2022-07-24T02:56:52;9.47;;;4.17;;
31061;SDS011;17724;53.546;9.974;2022-07-24T03:00:52;9.53;;;3.93;;
31061;SDS011;17724;53.546;9.974;2022-07-24T03:04:55;10.00;;;3.97;;
31061;SDS011;17724;53.546;9.974;2022-07-24T03:09:02;9.13;;;4.10;;
31061;SDS011;17724;53.546;9.974;2022-07-24T03:13:03;9.57;;;3.67;;
31061;SDS011;17724;53.546;9.974;2022-07-24T03:17:03;7.70;;;2.80;;
31061;SDS011;17724;53.546;9.974;2022-07-24T03:21:03;9.10;;;4.10;;
31061;SDS011;17724;53.546;9.974;2022-07-24T03:25:04;8.00;;;3.70;;
31061;SDS011;17724;53.546;9.974;2022-07-24T03:29:04;9.67;;;3.30;;
31061;SDS011;17724;53.546;9.974;2022-07-24T03:33:05;8.30;;;4.00;;
31061;SDS011;17724;53.546;9.974;2022-07-24T03:37:05;9.33;;;3.10;;
31061;SDS011;17724;53.546;9.974;2022-07-24T03:41:06;8.20;;;3.50;;
31061;SDS011;17724;53.546;9.974;2022-07-24T03:45:06;8.00;;;3.20;;
31061;SDS011;17724;53.546;9.974;2022-07-24T03:49:07;7.70;;;3.47;;
31061;SDS011;17724;53.546;9.974;2022-07-24T03:53:08;7.60;;;3.40;;
31061;SDS011;17724;53.546;9.974;2022-07-24T03:57:08;10.03;;;3.63;;
31061;SDS011;17724;53.546;9.974;2022-07-24T04:01:09;8.40;;;3.37;;
31061;SDS011;17724;53.546;9.974;2022-07-24T04:05:09;9.80;;;3.43;;
31061;SDS011;17724;53.546;9.974;2022-07-24T04:09:10;7.80;;;3.47;;
31061;SDS011;17724;53.546;9.974;2022-07-24T04:13:10;10.47;;;3.90;;
31061;SDS011;17724;53.546;9.974;2022-07-24T04:17:11;8.30;;;3.70;;
31061;SDS011;17724;53.546;9.974;2022-07-24T04:21:11;7.93;;;3.03;;
31061;SDS011;17724;53.546;9.974;2022-07-24T04:25:12;8.17;;;3.47;;
31061;SDS011;17724;53.546;9.974;2022-07-24T04:29:12;9.50;;;4.07;;
31061;SDS011;17724;53.546;9.974;2022-07-24T04:33:13;8.80;;;3.53;;
31061;SDS011;17724;53.546;9.974;2022-07-24T04:37:13;7.90;;;3.30;;
31061;SDS011;17724;53.546;9.974;2022-07-24T04:41:13;8.80;;;3.33;;
31061;SDS011;17724;53.546;9.974;2022-07-24T04:45:17;8.83;;;3.70;;
31061;SDS011;17724;53.546;9.974;2022-07-24T04:49:17;8.57;;;3.30;;
31061;SDS011;17724;53.546;9.974;2022-07-24T04:53:18;8.50;;;3.50;;
31061;SDS011;17724;53.546;9.974;2022-07-24T04:57:18;7.50;;;3.33;;
31061;SDS011;17724;53.546;9.974;2022-07-24T05:01:18;8.13;;;3.70;;
31061;SDS011;17724;53.546;9.974;2022-07-24T05:05:19;8.00;;;3.60;;
31061;SDS011;17724;53.546;9.974;2022-07-24T05:09:19;9.77;;;3.80;;
31061;SDS011;17724;53.546;9.974;2022-07-24T05:13:20;8.90;;;3.80;;
31061;SDS011;17724;53.546;9.974;2022-07-24T05:17:20;7.03;;;2.93;;
31061;SDS011;17724;53.546;9.974;2022-07-24T05:21:21;8.57;;;3.33;;
31061;SDS011;17724;53.546;9.974;2022-07-24T05:25:21;7.33;;;3.00;;
31061;SDS011;17724;53.546;9.974;2022-07-24T05:29:22;7.27;;;2.90;;
31061;SDS011;17724;53.546;9.974;2022-07-24T05:33:22;8.87;;;3.37;;
31061;SDS011;17724;53.546;9.974;2022-07-24T05:37:22;9.13;;;3.03;;
31061;SDS011;17724;53.546;9.974;2022-07-24T05:41:23;9.37;;;2.90;;
31061;SDS011;17724;53.546;9.974;2022-07-24T05:45:23;9.53;;;2.83;;
31061;SDS011;17724;53.546;9.974;2022-07-24T05:49:24;8.13;;;2.57;;
31061;SDS011;17724;53.546;9.974;2022-07-24T05:53:24;9.00;;;2.80;;
31061;SDS011;17724;53.546;9.974;2022-07-24T05:57:25;7.60;;;3.00;;
31061;SDS011;17724;53.546;9.974;2022-07-24T06:01:25;7.97;;;2.57;;
31061;SDS011;17724;53.546;9.974;2022-07-24T06:05:25;6.87;;;2.50;;
31061;SDS011;17724;53.546;9.974;2022-07-24T06:09:26;9.73;;;2.17;;
31061;SDS011;17724;53.546;9.974;2022-07-24T06:13:26;8.40;;;2.53;;
31061;SDS011;17724;53.546;9.974;2022-07-24T06:17:27;6.87;;;1.97;;
31061;SDS011;17724;53.546;9.974;2022-07-24T06:21:27;8.17;;;1.93;;
31061;SDS011;17724;53.546;9.974;2022-07-24T06:25:27;8.73;;;2.30;;
31061;SDS011;17724;53.546;9.974;2022-07-24T06:29:28;8.17;;;2.10;;
31061;SDS011;17724;53.546;9.974;2022-07-24T06:33:28;7.90;;;2.10;;
31061;SDS011;17724;53.546;9.974;2022-07-24T06:37:28;9.40;;;2.50;;
31061;SDS011;17724;53.546;9.974;2022-07-24T06:41:29;8.47;;;2.33;;
31061;SDS011;17724;53.546;9.974;2022-07-24T06:45:29;6.53;;;2.20;;
31061;SDS011;17724;53.546;9.974;2022-07-24T06:49:32;9.43;;;2.30;;
31061;SDS011;17724;53.546;9.974;2022-07-24T06:53:32;12.23;;;2.13;;
31061;SDS011;17724;53.546;9.974;2022-07-24T06:57:33;8.27;;;2.03;;
31061;SDS011;17724;53.546;9.974;2022-07-24T07:01:34;6.63;;;2.10;;
31061;SDS011;17724;53.546;9.974;2022-07-24T07:05:34;6.50;;;1.80;;
31061;SDS011;17724;53.546;9.974;2022-07-24T07:09:35;6.87;;;2.07;;
31061;SDS011;17724;53.546;9.974;2022-07-24T07:13:36;7.63;;;2.00;;
31061;SDS011;17724;53.546;9.974;2022-07-24T07:17:37;8.30;;;2.00;;
31061;SDS011;17724;53.546;9.974;2022-07-24T07:21:38;12.43;;;2.53;;
31061;SDS011;17724;53.546;9.974;2022-07-24T07:25:39;8.93;;;1.90;;
31061;SDS011;17724;53.546;9.974;2022-07-24T07:29:39;7.20;;;1.70;;
31061;SDS011;17724;53.546;9.974;2022-07-24T07:33:39;6.90;;;1.60;;
31061;SDS011;17724;53.546;9.974;2022-07-24T07:37:40;6.90;;;1.80;;
31061;SDS011;17724;53.546;9.974;2022-07-24T07:41:40;7.13;;;1.73;;
31061;SDS011;17724;53.546;9.974;2022-07-24T07:45:41;7.40;;;1.80;;
31061;SDS011;17724;53.546;9.974;2022-07-24T07:49:41;8.50;;;2.10;;
31061;SDS011;17724;53.546;9.974;2022-07-24T07:53:42;7.13;;;2.10;;
31061;SDS011;17724;53.546;9.974;2022-07-24T07:57:43;6.57;;;1.83;;
31061;SDS011;17724;53.546;9.974;2022-07-24T08:01:43;8.40;;;1.83;;
31061;SDS011;17724;53.546;9.974;2022-07-24T08:05:43;7.90;;;1.70;;
31061;SDS011;17724;53.546;9.974;2022-07-24T08:09:44;8.17;;;2.07;;
31061;SDS011;17724;53.546;9.974;2022-07-24T08:13:45;6.70;;;1.70;;
31061;SDS011;17724;53.546;9.974;2022-07-24T08:17:45;7.43;;;1.90;;
31061;SDS011;17724;53.546;9.974;2022-07-24T08:21:53;6.93;;;1.50;;
31061;SDS011;17724;53.546;9.974;2022-07-24T08:25:53;11.20;;;2.10;;
31061;SDS011;17724;53.546;9.974;2022-07-24T08:29:54;7.23;;;2.10;;
31061;SDS011;17724;53.546;9.974;2022-07-24T08:33:54;6.90;;;1.67;;
31061;SDS011;17724;53.546;9.974;2022-07-24T08:37:55;7.90;;;1.80;;
31061;SDS011;17724;53.546;9.974;2022-07-24T08:41:56;9.57;;;2.60;;
31061;SDS011;17724;53.546;9.974;2022-07-24T08:45:56;7.37;;;1.60;;
31061;SDS011;17724;53.546;9.974;2022-07-24T08:50:01;7.00;;;2.13;;
31061;SDS011;17724;53.546;9.974;2022-07-24T08:54:05;7.20;;;2.13;;
31061;SDS011;17724;53.546;9.974;2022-07-24T08:58:06;8.43;;;1.90;;
31061;SDS011;17724;53.546;9.974;2022-07-24T09:02:07;7.80;;;2.30;;
31061;SDS011;17724;53.546;9.974;2022-07-24T09:06:08;9.37;;;2.50;;
31061;SDS011;17724;53.546;9.974;2022-07-24T09:10:14;7.60;;;2.33;;
31061;SDS011;17724;53.546;9.974;2022-07-24T09:14:18;7.57;;;2.00;;
31061;SDS011;17724;53.546;9.974;2022-07-24T09:18:32;8.40;;;1.93;;
31061;SDS011;17724;53.546;9.974;2022-07-24T09:26:43;8.17;;;1.97;;
31061;SDS011;17724;53.546;9.974;2022-07-24T09:31:01;8.43;;;2.10;;
31061;SDS011;17724;53.546;9.974;2022-07-24T09:35:04;7.90;;;2.40;;
31061;SDS011;17724;53.546;9.974;2022-07-24T09:39:06;7.97;;;2.50;;
31061;SDS011;17724;53.546;9.974;2022-07-24T09:43:13;8.67;;;2.60;;
31061;SDS011;17724;53.546;9.974;2022-07-24T09:47:33;7.77;;;2.30;;
31061;SDS011;17724;53.546;9.974;2022-07-24T09:51:35;7.83;;;2.60;;
31061;SDS011;17724;53.546;9.974;2022-07-24T09:55:36;8.70;;;2.77;;
31061;SDS011;17724;53.546;9.974;2022-07-24T09:59:36;7.67;;;2.67;;
31061;SDS011;17724;53.546;9.974;2022-07-24T10:03:38;7.63;;;2.37;;
31061;SDS011;17724;53.546;9.974;2022-07-24T10:07:40;8.30;;;2.60;;
31061;SDS011;17724;53.546;9.974;2022-07-24T10:11:41;10.10;;;3.37;;
31061;SDS011;17724;53.546;9.974;2022-07-24T10:15:51;7.57;;;3.00;;
31061;SDS011;17724;53.546;9.974;2022-07-24T10:20:11;8.17;;;4.00;;
31061;SDS011;17724;53.546;9.974;2022-07-24T10:24:23;7.90;;;2.80;;
31061;SDS011;17724;53.546;9.974;2022-07-24T10:28:42;7.70;;;3.57;;
31061;SDS011;17724;53.546;9.974;2022-07-24T10:32:43;9.40;;;3.40;;
31061;SDS011;17724;53.546;9.974;2022-07-24T10:36:48;9.70;;;3.40;;
31061;SDS011;17724;53.546;9.974;2022-07-24T10:40:54;9.20;;;3.70;;
31061;SDS011;17724;53.546;9.974;2022-07-24T10:50:00;8.23;;;3.67;;
31061;SDS011;17724;53.546;9.974;2022-07-24T10:53:47;8.30;;;3.80;;
31061;SDS011;17724;53.546;9.974;2022-07-24T10:58:00;8.40;;;3.63;;
31061;SDS011;17724;53.546;9.974;2022-07-24T11:06:39;8.07;;;3.63;;
31061;SDS011;17724;53.546;9.974;2022-07-24T11:10:48;9.43;;;3.80;;
31061;SDS011;17724;53.546;9.974;2022-07-24T11:14:49;15.83;;;5.00;;
31061;SDS011;17724;53.546;9.974;2022-07-24T11:22:54;8.70;;;3.83;;
31061;SDS011;17724;53.546;9.974;2022-07-24T11:26:59;14.03;;;5.90;;
31061;SDS011;17724;53.546;9.974;2022-07-24T11:31:05;9.20;;;4.03;;
31061;SDS011;17724;53.546;9.974;2022-07-24T11:35:05;10.37;;;4.33;;
31061;SDS011;17724;53.546;9.974;2022-07-24T11:39:07;11.07;;;4.93;;
31061;SDS011;17724;53.546;9.974;2022-07-24T11:43:08;8.40;;;4.07;;
31061;SDS011;17724;53.546;9.974;2022-07-24T11:47:14;7.90;;;3.90;;
31061;SDS011;17724;53.546;9.974;2022-07-24T11:51:15;10.37;;;4.40;;
31061;SDS011;17724;53.546;9.974;2022-07-24T11:55:20;9.23;;;3.90;;
31061;SDS011;17724;53.546;9.974;2022-07-24T11:59:31;8.07;;;4.27;;
31061;SDS011;17724;53.546;9.974;2022-07-24T12:03:32;9.03;;;4.50;;
31061;SDS011;17724;53.546;9.974;2022-07-24T12:07:33;8.63;;;4.13;;
31061;SDS011;17724;53.546;9.974;2022-07-24T12:11:33;9.10;;;3.93;;
31061;SDS011;17724;53.546;9.974;2022-07-24T12:15:37;10.20;;;4.90;;
31061;SDS011;17724;53.546;9.974;2022-07-24T12:19:39;9.17;;;4.13;;
31061;SDS011;17724;53.546;9.974;2022-07-24T12:23:39;8.30;;;4.70;;
31061;SDS011;17724;53.546;9.974;2022-07-24T12:27:41;9.10;;;4.60;;
31061;SDS011;17724;53.546;9.974;2022-07-24T12:31:43;9.40;;;4.13;;
31061;SDS011;17724;53.546;9.974;2022-07-24T12:39:56;8.70;;;4.43;;
31061;SDS011;17724;53.546;9.974;2022-07-24T12:44:02;8.20;;;4.10;;
31061;SDS011;17724;53.546;9.974;2022-07-24T12:48:05;8.50;;;4.23;;
31061;SDS011;17724;53.546;9.974;2022-07-24T12:52:18;7.93;;;3.87;;
31061;SDS011;17724;53.546;9.974;2022-07-24T12:56:21;9.07;;;4.20;;
31061;SDS011;17724;53.546;9.974;2022-07-24T13:00:22;10.30;;;3.93;;
31061;SDS011;17724;53.546;9.974;2022-07-24T13:04:23;10.50;;;3.73;;
31061;SDS011;17724;53.546;9.974;2022-07-24T13:08:24;9.83;;;3.83;;
31061;SDS011;17724;53.546;9.974;2022-07-24T13:12:24;11.43;;;4.30;;
31061;SDS011;17724;53.546;9.974;2022-07-24T13:16:32;8.27;;;3.93;;
31061;SDS011;17724;53.546;9.974;2022-07-24T13:20:33;8.80;;;3.87;;
31061;SDS011;17724;53.546;9.974;2022-07-24T13:24:34;9.57;;;5.80;;
31061;SDS011;17724;53.546;9.974;2022-07-24T13:28:37;8.50;;;4.17;;
31061;SDS011;17724;53.546;9.974;2022-07-24T13:32:38;12.20;;;6.43;;
31061;SDS011;17724;53.546;9.974;2022-07-24T13:36:38;9.70;;;4.33;;
31061;SDS011;17724;53.546;9.974;2022-07-24T13:40:41;9.47;;;5.30;;
31061;SDS011;17724;53.546;9.974;2022-07-24T13:44:42;9.33;;;4.30;;
31061;SDS011;17724;53.546;9.974;2022-07-24T13:48:45;9.50;;;5.07;;
31061;SDS011;17724;53.546;9.974;2022-07-24T13:52:46;14.20;;;5.40;;
31061;SDS011;17724;53.546;9.974;2022-07-24T13:56:46;12.10;;;6.00;;
31061;SDS011;17724;53.546;9.974;2022-07-24T14:00:47;8.63;;;4.53;;
31061;SDS011;17724;53.546;9.974;2022-07-24T14:04:47;9.70;;;3.97;;
31061;SDS011;17724;53.546;9.974;2022-07-24T14:08:48;8.10;;;4.30;;
31061;SDS011;17724;53.546;9.974;2022-07-24T14:12:48;8.60;;;3.97;;
31061;SDS011;17724;53.546;9.974;2022-07-24T14:16:49;10.33;;;5.20;;
31061;SDS011;17724;53.546;9.974;2022-07-24T14:20:50;8.40;;;3.83;;
31061;SDS011;17724;53.546;9.974;2022-07-24T14:24:51;18.13;;;15.00;;
31061;SDS011;17724;53.546;9.974;2022-07-24T14:28:51;10.90;;;7.73;;
31061;SDS011;17724;53.546;9.974;2022-07-24T14:32:52;10.07;;;5.73;;
31061;SDS011;17724;53.546;9.974;2022-07-24T14:36:52;10.50;;;5.93;;
31061;SDS011;17724;53.546;9.974;2022-07-24T14:40:53;8.17;;;4.50;;
31061;SDS011;17724;53.546;9.974;2022-07-24T14:44:53;9.40;;;4.90;;
31061;SDS011;17724;53.546;9.974;2022-07-24T14:48:54;14.43;;;7.40;;
31061;SDS011;17724;53.546;9.974;2022-07-24T14:52:54;18.33;;;15.00;;
31061;SDS011;17724;53.546;9.974;2022-07-24T14:56:54;19.80;;;16.20;;
31061;SDS011;17724;53.546;9.974;2022-07-24T15:00:55;12.67;;;9.90;;
31061;SDS011;17724;53.546;9.974;2022-07-24T15:04:55;12.10;;;7.67;;
31061;SDS011;17724;53.546;9.974;2022-07-24T15:08:56;8.93;;;4.30;;
31061;SDS011;17724;53.546;9.974;2022-07-24T15:12:56;9.87;;;4.83;;
31061;SDS011;17724;53.546;9.974;2022-07-24T15:16:57;9.23;;;5.60;;
31061;SDS011;17724;53.546;9.974;2022-07-24T15:20:57;9.00;;;4.80;;
31061;SDS011;17724;53.546;9.974;2022-07-24T15:24:57;10.43;;;5.13;;
31061;SDS011;17724;53.546;9.974;2022-07-24T15:28:58;12.47;;;9.17;;
31061;SDS011;17724;53.546;9.974;2022-07-24T15:32:58;18.27;;;13.17;;
31061;SDS011;17724;53.546;9.974;2022-07-24T15:37:00;9.97;;;5.57;;
31061;SDS011;17724;53.546;9.974;2022-07-24T15:41:01;17.10;;;13.27;;
31061;SDS011;17724;53.546;9.974;2022-07-24T15:45:01;13.00;;;7.37;;
31061;SDS011;17724;53.546;9.974;2022-07-24T15:49:03;12.03;;;8.53;;
31061;SDS011;17724;53.546;9.974;2022-07-24T15:53:05;9.73;;;5.63;;
31061;SDS011;17724;53.546;9.974;2022-07-24T15:57:06;19.97;;;10.73;;
31061;SDS011;17724;53.546;9.974;2022-07-24T16:01:07;16.80;;;14.23;;
31061;SDS011;17724;53.546;9.974;2022-07-24T16:05:08;8.50;;;4.73;;
31061;SDS011;17724;53.546;9.974;2022-07-24T16:09:09;14.30;;;11.70;;
31061;SDS011;17724;53.546;9.974;2022-07-24T16:13:10;13.80;;;7.63;;
31061;SDS011;17724;53.546;9.974;2022-07-24T16:17:10;13.17;;;8.50;;
31061;SDS011;17724;53.546;9.974;2022-07-24T16:21:12;13.50;;;9.30;;
31061;SDS011;17724;53.546;9.974;2022-07-24T16:25:12;32.17;;;24.30;;
31061;SDS011;17724;53.546;9.974;2022-07-24T16:29:14;13.17;;;10.23;;
31061;SDS011;17724;53.546;9.974;2022-07-24T16:33:16;12.07;;;6.57;;
31061;SDS011;17724;53.546;9.974;2022-07-24T16:37:16;12.07;;;8.10;;
31061;SDS011;17724;53.546;9.974;2022-07-24T16:41:18;9.37;;;6.43;;
31061;SDS011;17724;53.546;9.974;2022-07-24T16:45:18;11.53;;;5.90;;
31061;SDS011;17724;53.546;9.974;2022-07-24T16:49:19;10.97;;;7.97;;
31061;SDS011;17724;53.546;9.974;2022-07-24T16:53:20;15.43;;;12.37;;
31061;SDS011;17724;53.546;9.974;2022-07-24T16:57:20;10.23;;;6.07;;
31061;SDS011;17724;53.546;9.974;2022-07-24T17:01:21;12.30;;;9.13;;
31061;SDS011;17724;53.546;9.974;2022-07-24T17:05:22;14.90;;;6.37;;
31061;SDS011;17724;53.546;9.974;2022-07-24T17:09:23;18.67;;;12.40;;
31061;SDS011;17724;53.546;9.974;2022-07-24T17:13:23;15.90;;;14.17;;
31061;SDS011;17724;53.546;9.974;2022-07-24T17:17:24;16.30;;;7.13;;
31061;SDS011;17724;53.546;9.974;2022-07-24T17:21:26;10.93;;;7.77;;
31061;SDS011;17724;53.546;9.974;2022-07-24T17:25:27;11.60;;;9.00;;
31061;SDS011;17724;53.546;9.974;2022-07-24T17:29:29;14.00;;;10.70;;
31061;SDS011;17724;53.546;9.974;2022-07-24T17:33:29;14.27;;;12.17;;
31061;SDS011;17724;53.546;9.974;2022-07-24T17:37:30;13.57;;;8.87;;
31061;SDS011;17724;53.546;9.974;2022-07-24T17:41:31;14.20;;;10.30;;
31061;SDS011;17724;53.546;9.974;2022-07-24T17:45:31;16.07;;;11.93;;
31061;SDS011;17724;53.546;9.974;2022-07-24T17:49:33;15.80;;;9.03;;
31061;SDS011;17724;53.546;9.974;2022-07-24T17:53:33;17.10;;;14.33;;
31061;SDS011;17724;53.546;9.974;2022-07-24T17:57:33;11.33;;;8.00;;
31061;SDS011;17724;53.546;9.974;2022-07-24T18:01:34;14.60;;;11.80;;
31061;SDS011;17724;53.546;9.974;2022-07-24T18:05:35;18.60;;;14.23;;
31061;SDS011;17724;53.546;9.974;2022-07-24T18:09:35;51.20;;;46.20;;
31061;SDS011;17724;53.546;9.974;2022-07-24T18:13:35;19.07;;;16.93;;
31061;SDS011;17724;53.546;9.974;2022-07-24T18:17:36;17.73;;;15.83;;
31061;SDS011;17724;53.546;9.974;2022-07-24T18:21:37;11.80;;;9.30;;
31061;SDS011;17724;53.546;9.974;2022-07-24T18:25:37;13.60;;;11.60;;
31061;SDS011;17724;53.546;9.974;2022-07-24T18:29:38;11.10;;;7.17;;
31061;SDS011;17724;53.546;9.974;2022-07-24T18:33:38;38.60;;;34.67;;
31061;SDS011;17724;53.546;9.974;2022-07-24T18:37:39;22.00;;;19.70;;
31061;SDS011;17724;53.546;9.974;2022-07-24T18:41:39;23.87;;;21.57;;
31061;SDS011;17724;53.546;9.974;2022-07-24T18:45:40;11.00;;;8.50;;
31061;SDS011;17724;53.546;9.974;2022-07-24T18:49:40;11.70;;;10.13;;
31061;SDS011;17724;53.546;9.974;2022-07-24T18:53:41;13.00;;;11.23;;
31061;SDS011;17724;53.546;9.974;2022-07-24T18:57:41;18.13;;;16.33;;
31061;SDS011;17724;53.546;9.974;2022-07-24T19:01:42;12.37;;;9.80;;
31061;SDS011;17724;53.546;9.974;2022-07-24T19:05:43;21.20;;;15.00;;
31061;SDS011;17724;53.546;9.974;2022-07-24T19:09:43;18.93;;;15.60;;
31061;SDS011;17724;53.546;9.974;2022-07-24T19:13:44;12.13;;;9.33;;
31061;SDS011;17724;53.546;9.974;2022-07-24T19:17:44;14.07;;;12.57;;
31061;SDS011;17724;53.546;9.974;2022-07-24T19:21:45;12.17;;;6.73;;
31061;SDS011;17724;53.546;9.974;2022-07-24T19:25:45;10.73;;;8.10;;
31061;SDS011;17724;53.546;9.974;2022-07-24T19:29:45;12.73;;;8.73;;
31061;SDS011;17724;53.546;9.974;2022-07-24T19:33:47;22.27;;;19.90;;
31061;SDS011;17724;53.546;9.974;2022-07-24T19:37:47;15.63;;;12.60;;
31061;SDS011;17724;53.546;9.974;2022-07-24T19:41:48;16.20;;;14.43;;
31061;SDS011;17724;53.546;9.974;2022-07-24T19:45:48;15.67;;;12.03;;
31061;SDS011;17724;53.546;9.974;2022-07-24T19:49:48;23.70;;;19.60;;
31061;SDS011;17724;53.546;9.974;2022-07-24T19:53:52;14.67;;;10.50;;
31061;SDS011;17724;53.546;9.974;2022-07-24T19:57:52;14.10;;;11.00;;
31061;SDS011;17724;53.546;9.974;2022-07-24T20:01:53;13.13;;;9.17;;
31061;SDS011;17724;53.546;9.974;2022-07-24T20:05:53;13.93;;;9.90;;
31061;SDS011;17724;53.546;9.974;2022-07-24T20:09:53;17.93;;;13.67;;
31061;SDS011;17724;53.546;9.974;2022-07-24T20:13:54;15.50;;;12.50;;
31061;SDS011;17724;53.546;9.974;2022-07-24T20:17:54;18.10;;;13.33;;
31061;SDS011;17724;53.546;9.974;2022-07-24T20:21:54;23.37;;;19.80;;
31061;SDS011;17724;53.546;9.974;2022-07-24T20:25:55;26.50;;;23.77;;
31061;SDS011;17724;53.546;9.974;2022-07-24T20:29:55;21.00;;;18.57;;
31061;SDS011;17724;53.546;9.974;2022-07-24T20:33:56;17.37;;;15.53;;
31061;SDS011;17724;53.546;9.974;2022-07-24T20:37:56;19.63;;;17.63;;
31061;SDS011;17724;53.546;9.974;2022-07-24T20:41:56;16.60;;;13.87;;
31061;SDS011;17724;53.546;9.974;2022-07-24T20:45:57;16.10;;;13.77;;
31061;SDS011;17724;53.546;9.974;2022-07-24T20:49:57;14.60;;;10.77;;
31061;SDS011;17724;53.546;9.974;2022-07-24T20:53:58;16.20;;;11.50;;
31061;SDS011;17724;53.546;9.974;2022-07-24T20:58:00;16.03;;;11.07;;
31061;SDS011;17724;53.546;9.974;2022-07-24T21:02:01;14.00;;;10.30;;
31061;SDS011;17724;53.546;9.974;2022-07-24T21:06:01;12.37;;;7.83;;
31061;SDS011;17724;53.546;9.974;2022-07-24T21:10:02;13.90;;;9.60;;
31061;SDS011;17724;53.546;9.974;2022-07-24T21:14:03;14.97;;;9.30;;
31061;SDS011;17724;53.546;9.974;2022-07-24T21:18:04;20.47;;;15.70;;
31061;SDS011;17724;53.546;9.974;2022-07-24T21:22:04;16.70;;;14.90;;
31061;SDS011;17724;53.546;9.974;2022-07-24T21:26:04;15.40;;;12.90;;
31061;SDS011;17724;53.546;9.974;2022-07-24T21:30:05;13.10;;;9.73;;
31061;SDS011;17724;53.546;9.974;2022-07-24T21:34:06;15.70;;;11.57;;
31061;SDS011;17724;53.546;9.974;2022-07-24T21:38:07;12.80;;;8.63;;
31061;SDS011;17724;53.546;9.974;2022-07-24T21:42:07;11.40;;;8.13;;
31061;SDS011;17724;53.546;9.974;2022-07-24T21:46:08;13.20;;;10.80;;
31061;SDS011;17724;53.546;9.974;2022-07-24T21:50:08;13.60;;;10.03;;
31061;SDS011;17724;53.546;9.974;2022-07-24T21:54:09;11.60;;;8.87;;
31061;SDS011;17724;53.546;9.974;2022-07-24T21:58:09;12.30;;;7.80;;
31061;SDS011;17724;53.546;9.974;2022-07-24T22:02:11;12.30;;;8.63;;
31061;SDS011;17724;53.546;9.974;2022-07-24T22:06:12;12.90;;;9.77;;
31061;SDS011;17724;53.546;9.974;2022-07-24T22:10:12;10.80;;;7.37;;
31061;SDS011;17724;53.546;9.974;2022-07-24T22:14:13;10.13;;;6.67;;
31061;SDS011;17724;53.546;9.974;2022-07-24T22:18:13;10.00;;;6.73;;
31061;SDS011;17724;53.546;9.974;2022-07-24T22:22:14;9.20;;;6.03;;
31061;SDS011;17724;53.546;9.974;2022-07-24T22:26:15;11.13;;;5.93;;
31061;SDS011;17724;53.546;9.974;2022-07-24T22:30:15;8.40;;;5.30;;
31061;SDS011;17724;53.546;9.974;2022-07-24T22:34:16;10.60;;;6.47;;
31061;SDS011;17724;53.546;9.974;2022-07-24T22:38:16;9.20;;;5.47;;
31061;SDS011;17724;53.546;9.974;2022-07-24T22:42:17;8.83;;;5.80;;
31061;SDS011;17724;53.546;9.974;2022-07-24T22:46:18;11.23;;;6.17;;
31061;SDS011;17724;53.546;9.974;2022-07-24T22:50:19;9.40;;;5.97;;
31061;SDS011;17724;53.546;9.974;2022-07-24T22:54:20;8.97;;;5.70;;
31061;SDS011;17724;53.546;9.974;2022-07-24T22:58:21;11.10;;;6.27;;
31061;SDS011;17724;53.546;9.974;2022-07-24T23:02:21;9.83;;;5.20;;
31061;SDS011;17724;53.546;9.974;2022-07-24T23:06:22;11.13;;;5.37;;
31061;SDS011;17724;53.546;9.974;2022-07-24T23:10:22;9.90;;;5.87;;
31061;SDS011;17724;53.546;9.974;2022-07-24T23:14:23;9.57;;;5.70;;
31061;SDS011;17724;53.546;9.974;2022-07-24T23:18:24;9.60;;;5.70;;
31061;SDS011;17724;53.546;9.974;2022-07-24T23:22:24;8.50;;;5.40;;
31061;SDS011;17724;53.546;9.974;2022-07-24T23:26:24;8.80;;;5.50;;
31061;SDS011;17724;53.546;9.974;2022-07-24T23:30:25;9.90;;;5.63;;
31061;SDS011;17724;53.546;9.974;2022-07-24T23:34:25;9.27;;;5.50;;
31061;SDS011;17724;53.546;9.974;2022-07-24T23:38:25;10.10;;;6.30;;
31061;SDS011;17724;53.546;9.974;2022-07-24T23:42:26;9.90;;;5.70;;
31061;SDS011;17724;53.546;9.974;2022-07-24T23:46:26;9.93;;;5.60;;
31061;SDS011;17724;53.546;9.974;2022-07-24T23:50:27;9.07;;;5.57;;
31061;SDS011;17724;53.546;9.974;2022-07-24T23:54:27;11.77;;;6.00;;
31061;SDS011;17724;53.546;9.974;2022-07-24T23:58:28;11.00;;;7.23;;
